Overview Statistics Trail Chart Weather Telemetry Raw packets
 

This is the latest recevied weather packets stored in our database for station/object KG5APU. If no packets are shown the sender has not sent any weather packets the latest 10 day(s).

<< 21 22 23 24 25 26 27 >>
Time Temp. Humidity Pressure Rain* Wind** Luminosity Snow
1788310702 33.89° C 53% 1013.4 hPa 0 mm - 2 W/m² -
1788310098 34.44° C 49% 1013.5 hPa 0 mm - 5 W/m² -
1788309493 35.56° C 47% 1013.4 hPa 0 mm - 12 W/m² -
1788308890 36.11° C 46% 1013.6 hPa 0 mm - 22 W/m² -
1788308285 36.11° C 44% 1013.7 hPa 0 mm - 34 W/m² -
1788307680 36.67° C 44% 1013.8 hPa 0 mm - 49 W/m² -
1788307075 36.11° C 45% 1013.8 hPa 0 mm - 66 W/m² -
1788306475 35.56° C 45% 1013.7 hPa 0 mm - 92 W/m² -
1788305872 35° C 47% 1014.2 hPa 0 mm - 118 W/m² -
1788305268 36.11° C 45% 1014.2 hPa 0 mm - 88 W/m² -
1788304670 37.78° C 40% 1014.1 hPa 0 mm - 80 W/m² -
1788304063 36.67° C 43% 1013.9 hPa 0 mm - 219 W/m² -
1788303464 36.11° C 46% 1014.3 hPa 0 mm - 160 W/m² -
1788302860 36.11° C 45% 1014.1 hPa 0 mm - 154 W/m² -
1788302258 36.67° C 42% 1014.3 hPa 0 mm - 120 W/m² -
1788301654 36.67° C 44% 1014.2 hPa 0 mm - 144 W/m² -
1788301052 36.67° C 42% 1014.2 hPa 0 mm - 174 W/m² -
1788300446 36.67° C 41% 1014.3 hPa 0 mm - 127 W/m² -
1788299845 38.33° C 38% 1014.1 hPa 0 mm - 161 W/m² -
1788299244 38.33° C 39% 1014.2 hPa 0 mm - 416 W/m² -
1788298643 36.67° C 42% 1014.4 hPa 0 mm - 579 W/m² -
1788298043 36.67° C 42% 1014.3 hPa 0 mm - 145 W/m² -
1788297439 36.67° C 41% 1014.7 hPa 0 mm - 478 W/m² -
1788296837 37.78° C 40% 1014.6 hPa 0 mm - 134 W/m² -
1788296234 38.33° C 39% 1014.6 hPa 0 mm - 614 W/m² -

* Rain latest hour (hover to see other rain measurements)
** Current wind speed in m/s (hover to see current wind gust speed)